Time;durP1;ratioP1;P1;durP2;ratioP2;P2;SDS_P1;SDS_P2;PMS_P1;PMS_P2;Temp;Humidity;BMP_temperature;BMP_pressure;BME280_temperature;BME280_humidity;BME280_pressure;Samples;Min_cycle;Max_cycle;Signal;HPM_P1;HPM_P2
2023/07/20 00:00:38;;;;;;;15.70;4.95;;;;;;;28.04;42.56;99210.19;3084128;28;20057;-71
2023/07/20 00:02:09;;;;;;;10.32;5.03;;;;;;;28.02;42.88;99211.38;3083837;28;20055;-72
2023/07/20 00:03:40;;;;;;;13.73;5.10;;;;;;;27.97;42.83;99213.81;3072833;28;20535;-72
2023/07/20 00:05:12;;;;;;;9.50;5.07;;;;;;;27.90;42.52;99227.97;3081624;28;20051;-72
2023/07/20 00:06:43;;;;;;;13.48;5.28;;;;;;;27.88;42.86;99230.03;3084690;28;20046;-71
2023/07/20 00:08:15;;;;;;;9.63;4.85;;;;;;;27.89;42.67;99238.88;3085013;28;20615;-70
2023/07/20 00:09:46;;;;;;;14.02;5.53;;;;;;;27.81;42.91;99250.56;3085071;28;20132;-71
2023/07/20 00:11:18;;;;;;;10.25;5.22;;;;;;;27.82;42.52;99252.19;3077527;28;20134;-71
2023/07/20 00:12:51;;;;;;;8.95;5.05;;;;;;;27.82;42.30;99251.38;3078048;28;20055;-71
2023/07/20 00:14:22;;;;;;;;;;;;;;;27.60;42.56;99248.72;3084983;28;20082;-71
2023/07/20 00:15:53;;;;;;;14.82;4.85;;;;;;;27.70;42.29;99245.69;3084906;28;19929;-71
2023/07/20 00:17:24;;;;;;;8.98;4.95;;;;;;;27.75;41.97;99240.59;3077833;28;20059;-71
2023/07/20 00:18:56;;;;;;;14.35;4.28;;;;;;;27.75;42.01;99243.28;3074987;28;20055;-75
2023/07/20 00:20:27;;;;;;;12.43;5.97;;;;;;;27.77;42.42;99221.66;3084338;28;20079;-76
2023/07/20 00:21:59;;;;;;;9.20;4.38;;;;;;;27.76;42.34;99218.16;3084466;28;20055;-76
2023/07/20 00:23:30;;;;;;;9.23;4.72;;;;;;;27.75;42.08;99207.69;3084394;28;20109;-76
2023/07/20 00:25:02;;;;;;;8.55;4.60;;;;;;;27.75;42.32;99196.97;3060896;29;20103;-74
2023/07/20 00:26:32;;;;;;;12.52;4.93;;;;;;;27.74;42.19;99190.78;3073541;28;20108;-71
2023/07/20 00:28:05;;;;;;;17.80;4.75;;;;;;;27.77;41.80;99182.34;3072582;28;20055;-71
2023/07/20 00:29:37;;;;;;;;;;;;;;;27.60;42.25;99164.97;3083207;28;20058;-72
2023/07/20 00:31:08;;;;;;;10.25;4.35;;;;;;;27.70;41.76;99161.94;3083794;28;19922;-72
2023/07/20 00:32:39;;;;;;;13.88;5.13;;;;;;;27.75;42.07;99170.22;3072290;28;20507;-76
2023/07/20 00:34:10;;;;;;;11.90;5.53;;;;;;;27.78;41.55;99159.13;3079880;28;20505;-77
2023/07/20 00:35:42;;;;;;;10.70;4.82;;;;;;;27.80;41.87;99163.28;3084150;28;20104;-73
2023/07/20 00:37:13;;;;;;;9.35;4.97;;;;;;;27.79;41.57;99156.28;3084170;28;20081;-73
2023/07/20 00:38:45;;;;;;;14.90;4.78;;;;;;;27.80;41.57;99147.22;3083844;28;20061;-73
2023/07/20 00:40:17;;;;;;;11.68;4.88;;;;;;;27.83;41.68;99149.53;3080511;28;20078;-73
2023/07/20 00:41:49;;;;;;;8.18;4.97;;;;;;;27.83;41.33;99135.31;3072109;28;20059;-73
2023/07/20 00:43:21;;;;;;;12.90;4.97;;;;;;;27.88;41.17;99133.69;3072145;28;20062;-73
2023/07/20 00:44:53;;;;;;;8.88;4.32;;;;;;;27.91;41.00;99124.44;3074596;28;20054;-74
2023/07/20 00:46:24;;;;;;;11.93;4.88;;;;;;;27.95;40.95;99128.38;3078394;28;20067;-73
2023/07/20 00:47:57;;;;;;;12.52;4.43;;;;;;;27.97;41.08;99120.97;3073184;28;20047;-74
2023/07/20 00:49:29;;;;;;;13.50;5.28;;;;;;;27.98;40.78;99116.44;3084537;28;20093;-74
2023/07/20 00:51:01;;;;;;;11.15;5.15;;;;;;;28.01;40.95;99116.91;3084313;28;20062;-75
2023/07/20 00:52:34;;;;;;;13.50;4.82;;;;;;;28.03;40.75;99116.69;3083818;28;20065;-76
2023/07/20 00:54:05;;;;;;;12.20;4.57;;;;;;;28.05;40.93;99126.16;3084285;28;20058;-76
2023/07/20 00:55:36;;;;;;;10.45;4.45;;;;;;;28.08;40.90;99133.81;3076538;28;20509;-75
2023/07/20 00:57:07;;;;;;;18.73;5.40;;;;;;;28.12;40.50;99145.75;3072192;28;20473;-77
2023/07/20 00:58:41;;;;;;;19.20;5.10;;;;;;;28.15;40.47;99141.84;3080226;28;20061;-76
2023/07/20 01:00:11;;;;;;;;;;;;;;;28.01;40.70;99138.31;3084474;28;20058;-76
2023/07/20 01:01:43;;;;;;;13.13;5.03;;;;;;;28.10;40.19;99141.63;3073007;28;19922;-77
2023/07/20 01:03:15;;;;;;;21.65;5.25;;;;;;;28.17;40.16;99131.78;3072183;28;20095;-77
2023/07/20 01:04:47;;;;;;;13.32;4.85;;;;;;;28.22;40.49;99134.69;3077674;28;20211;-73
2023/07/20 01:06:29;;;;;;;16.77;4.97;;;;;;;28.22;40.31;99142.72;3083807;28;20058;-73
2023/07/20 01:08:09;;;;;;;11.35;4.63;;;;;;;28.25;40.54;99139.66;3084195;28;20053;-72
2023/07/20 01:09:46;;;;;;;15.13;4.95;;;;;;;28.26;40.37;99135.94;3084110;28;20678;-73
2023/07/20 01:11:28;;;;;;;12.20;4.95;;;;;;;28.30;40.04;99137.19;3076464;28;20058;-73
2023/07/20 01:13:02;;;;;;;12.90;4.53;;;;;;;28.31;40.27;99132.66;3078493;28;20754;-73
2023/07/20 01:14:35;;;;;;;14.10;5.00;;;;;;;28.27;40.46;99126.88;3084060;28;20497;-73
2023/07/20 01:16:06;;;;;;;6.68;4.60;;;;;;;28.30;40.48;99129.16;3074551;28;20067;-73
2023/07/20 01:17:37;;;;;;;13.38;5.13;;;;;;;28.33;40.55;99128.75;3072017;28;20452;-74
2023/07/20 01:19:09;;;;;;;9.45;5.15;;;;;;;28.38;40.41;99113.94;3075649;28;20050;-74
2023/07/20 01:20:41;;;;;;;10.23;4.15;;;;;;;28.41;40.05;99111.72;3083702;28;20162;-74
2023/07/20 01:22:30;;;;;;;14.20;5.72;;;;;;;28.42;40.29;99101.81;3084077;28;20531;-74
2023/07/20 01:24:41;;;;;;;12.13;4.60;;;;;;;28.36;40.32;99106.91;3083597;28;20050;-73
2023/07/20 01:26:33;;;;;;;17.13;5.78;;;;;;;28.32;40.37;99099.50;3077386;28;20117;-74
2023/07/20 01:28:35;;;;;;;10.23;4.70;;;;;;;28.25;40.25;99099.50;3071915;28;20047;-74
2023/07/20 01:30:29;;;;;;;12.70;4.40;;;;;;;28.26;40.57;99087.75;3072138;28;20047;-74
2023/07/20 01:32:07;;;;;;;12.73;4.70;;;;;;;28.27;40.76;99096.59;3075486;28;20050;-73
2023/07/20 01:33:39;;;;;;;14.52;5.55;;;;;;;28.28;40.20;99085.69;3083827;28;20090;-74
2023/07/20 01:35:14;;;;;;;13.20;4.90;;;;;;;28.31;40.54;99089.84;3084073;28;20070;-75
2023/07/20 01:36:48;;;;;;;12.90;4.75;;;;;;;28.30;40.31;99086.31;3083533;28;20157;-76
2023/07/20 01:38:20;;;;;;;11.32;4.32;;;;;;;28.27;40.42;99084.03;3083738;28;20595;-76
2023/07/20 01:39:55;;;;;;;10.85;4.55;;;;;;;28.30;40.59;99090.84;3083361;28;20129;-77
2023/07/20 01:41:26;;;;;;;16.15;5.20;;;;;;;28.31;40.50;99092.50;3071706;28;20043;-77
2023/07/20 01:42:57;;;;;;;11.82;5.00;;;;;;;28.29;41.01;99087.34;3072306;28;20429;-75
2023/07/20 01:44:30;;;;;;;14.05;5.55;;;;;;;28.27;41.06;99089.38;3080274;28;20058;-69
2023/07/20 01:46:00;;;;;;;17.00;4.60;;;;;;;28.25;40.59;99088.78;3072083;28;20094;-74
2023/07/20 01:47:34;;;;;;;13.90;4.80;;;;;;;28.26;41.11;99092.28;3083075;28;20509;-73
2023/07/20 01:49:04;;;;;;;;;;;;;;;28.03;41.20;99088.06;3084255;28;20109;-74
2023/07/20 01:50:36;;;;;;;12.77;4.70;;;;;;;28.08;41.27;99085.63;3087323;28;19925;-74
2023/07/20 01:52:07;;;;;;;12.80;5.57;;;;;;;28.13;41.16;99090.38;3085384;28;20460;-74
2023/07/20 01:53:39;;;;;;;18.23;4.75;;;;;;;28.13;40.92;99095.75;3087892;28;20051;-73
2023/07/20 01:55:09;;;;;;;8.60;4.78;;;;;;;28.15;41.07;99088.31;3087614;28;20153;-72
2023/07/20 01:56:41;;;;;;;12.75;5.20;;;;;;;28.17;40.91;99088.94;3077063;28;20509;-72
2023/07/20 01:58:12;;;;;;;14.35;5.32;;;;;;;28.16;41.39;99087.31;3079774;28;20051;-73
2023/07/20 01:59:44;;;;;;;10.88;5.38;;;;;;;28.19;40.90;99084.22;3078768;28;20065;-72
2023/07/20 02:01:15;;;;;;;17.80;4.63;;;;;;;28.19;41.07;99089.59;3078218;28;20055;-73
2023/07/20 02:02:48;;;;;;;13.02;5.55;;;;;;;28.15;41.25;99085.63;3082338;28;20051;-73
2023/07/20 02:04:19;;;;;;;;;;;;;;;27.99;41.17;99094.84;3077301;28;20555;-73
2023/07/20 02:05:50;;;;;;;16.58;5.53;;;;;;;28.07;41.19;99097.38;3087417;28;19926;-74
2023/07/20 02:07:22;;;;;;;12.50;4.78;;;;;;;28.13;41.08;99104.59;3087846;28;20073;-74
2023/07/20 02:08:53;;;;;;;13.02;5.88;;;;;;;28.18;41.47;99100.47;3087245;28;20739;-72
2023/07/20 02:10:25;;;;;;;11.93;4.78;;;;;;;28.17;41.16;99098.84;3076774;28;20548;-73
2023/07/20 02:11:56;;;;;;;10.98;5.35;;;;;;;28.18;41.40;99103.16;3075637;28;20054;-73
2023/07/20 02:13:28;;;;;;;14.95;5.78;;;;;;;28.14;41.24;99097.38;3083858;28;20536;-73
2023/07/20 02:14:58;;;;;;;13.15;6.10;;;;;;;28.14;41.29;99097.38;3075610;28;20062;-73
2023/07/20 02:16:30;;;;;;;10.10;4.72;;;;;;;28.15;41.71;99103.56;3083060;28;20443;-73
2023/07/20 02:18:03;;;;;;;16.10;5.88;;;;;;;28.18;41.89;99097.81;3087574;28;20050;-73
2023/07/20 02:19:35;;;;;;;15.13;5.35;;;;;;;28.19;41.67;99099.44;3087667;28;20544;-73
2023/07/20 02:21:06;;;;;;;12.73;5.43;;;;;;;28.18;42.03;99098.63;3087615;28;20443;-73
2023/07/20 02:22:38;;;;;;;12.07;4.78;;;;;;;28.20;41.79;99093.91;3087531;28;20059;-74
2023/07/20 02:24:09;;;;;;;16.63;5.30;;;;;;;28.22;41.62;99104.41;3087426;28;20058;-75
2023/07/20 02:25:42;;;;;;;16.55;4.47;;;;;;;28.24;41.82;99105.03;3080808;28;20460;-75
2023/07/20 02:27:12;;;;;;;14.93;5.00;;;;;;;28.18;42.18;99093.28;3075341;28;20471;-74
2023/07/20 02:28:45;;;;;;;13.52;5.70;;;;;;;28.12;41.93;99102.91;3075482;28;20314;-74
2023/07/20 02:30:16;;;;;;;13.33;6.37;;;;;;;28.05;42.42;99101.25;3076579;28;20063;-73
2023/07/20 02:31:47;;;;;;;16.27;5.82;;;;;;;27.99;42.35;99108.22;3087699;28;20430;-73
2023/07/20 02:33:20;;;;;;;29.05;6.43;;;;;;;27.96;42.03;99115.84;3087924;28;20479;-74
2023/07/20 02:34:52;;;;;;;22.27;6.90;;;;;;;27.93;41.80;99102.84;3087607;28;20483;-74
2023/07/20 02:36:24;;;;;;;23.27;6.38;;;;;;;27.92;42.08;99112.69;3086802;28;20070;-74
2023/07/20 02:37:55;;;;;;;27.35;7.22;;;;;;;27.92;41.72;99106.53;3087650;28;20113;-74
2023/07/20 02:39:28;;;;;;;24.17;6.72;;;;;;;27.89;41.64;99107.75;3087356;28;20132;-74
2023/07/20 02:40:59;;;;;;;15.93;6.35;;;;;;;27.84;42.17;99105.69;3077806;28;20058;-73
2023/07/20 02:42:30;;;;;;;23.77;6.72;;;;;;;27.85;42.02;99099.31;3075551;28;20047;-74
2023/07/20 02:44:03;;;;;;;19.95;6.70;;;;;;;27.85;41.54;99098.47;3075563;28;20079;-74
2023/07/20 02:45:34;;;;;;;18.67;6.57;;;;;;;27.82;42.01;99090.84;3082248;28;20085;-74
2023/07/20 02:47:07;;;;;;;19.13;7.05;;;;;;;27.80;41.82;99099.06;3087593;28;20504;-77
2023/07/20 02:48:39;;;;;;;14.82;7.60;;;;;;;27.77;41.95;99098.59;3081269;28;20458;-77
2023/07/20 02:50:13;;;;;;;18.17;7.63;;;;;;;27.75;41.83;99096.13;3087278;28;20121;-74
2023/07/20 02:51:44;;;;;;;21.38;7.43;;;;;;;27.75;42.05;99101.50;3086004;28;20507;-75
2023/07/20 02:53:16;;;;;;;22.77;8.48;;;;;;;27.72;42.20;99104.56;3087404;28;20046;-75
2023/07/20 02:54:47;;;;;;;21.48;7.57;;;;;;;27.73;42.09;99095.50;3087462;28;20143;-75
2023/07/20 02:56:19;;;;;;;22.40;8.82;;;;;;;27.74;41.72;99094.47;3080009;28;20142;-73
2023/07/20 02:57:51;;;;;;;18.65;8.13;;;;;;;27.76;41.66;99095.09;3075439;28;20114;-73
2023/07/20 02:59:21;;;;;;;17.50;7.72;;;;;;;27.76;41.76;99089.75;3075118;28;20058;-71
2023/07/20 03:00:53;;;;;;;19.42;7.63;;;;;;;27.78;42.15;99093.09;3075098;28;20059;-71
2023/07/20 03:02:25;;;;;;;19.23;7.18;;;;;;;27.75;42.29;99098.00;3082367;28;20113;-73
2023/07/20 03:03:58;;;;;;;22.10;7.95;;;;;;;27.76;42.00;99095.09;3073237;28;20058;-72
2023/07/20 03:05:28;;;;;;;;;;;;;;;27.56;42.27;99094.97;3084454;28;20061;-72
2023/07/20 03:07:00;;;;;;;18.70;7.30;;;;;;;27.61;42.34;99089.06;3085348;28;19926;-72
2023/07/20 03:08:31;;;;;;;13.55;6.90;;;;;;;27.61;42.31;99086.38;3085460;28;20081;-72
2023/07/20 03:10:04;;;;;;;19.00;6.57;;;;;;;27.62;42.22;99085.34;3085226;28;20046;-70
2023/07/20 03:11:35;;;;;;;22.13;6.70;;;;;;;27.57;41.92;99085.13;3075579;28;20051;-76
2023/07/20 03:13:07;;;;;;;14.27;7.43;;;;;;;27.59;42.29;99088.41;3073175;28;20057;-76
2023/07/20 03:14:37;;;;;;;14.35;6.90;;;;;;;27.60;41.96;99084.75;3079303;28;20062;-76
2023/07/20 03:16:12;;;;;;;24.35;6.90;;;;;;;27.58;42.38;99084.91;3085695;28;20488;-76
2023/07/20 03:17:43;;;;;;;16.25;6.88;;;;;;;27.55;42.48;99089.84;3085156;28;20050;-74
2023/07/20 03:19:16;;;;;;;19.73;7.07;;;;;;;27.54;42.86;99086.34;3085490;28;20527;-76
2023/07/20 03:20:48;;;;;;;;;;;;;;;27.35;42.42;99093.19;3085533;28;20074;-76
2023/07/20 03:22:21;;;;;;;16.55;7.07;;;;;;;27.40;42.70;99090.78;3077116;28;19969;-75
2023/07/20 03:23:52;;;;;;;27.80;7.30;;;;;;;27.41;43.01;99095.09;3085348;28;20547;-74
2023/07/20 03:25:24;;;;;;;18.48;6.72;;;;;;;27.41;43.03;99084.41;3085455;28;20051;-74
2023/07/20 03:26:55;;;;;;;13.38;7.03;;;;;;;27.41;42.63;99087.06;3065649;29;20452;-74
2023/07/20 03:28:26;;;;;;;15.38;7.10;;;;;;;27.43;42.73;99085.03;3073179;28;20055;-74
2023/07/20 03:29:58;;;;;;;23.58;6.85;;;;;;;27.48;43.04;99091.63;3084289;28;20503;-76
2023/07/20 03:31:29;;;;;;;16.80;7.00;;;;;;;27.49;42.99;99090.63;3085342;28;20178;-75
2023/07/20 03:33:01;;;;;;;29.52;7.93;;;;;;;27.49;43.32;99082.59;3085140;28;20086;-71
2023/07/20 03:34:34;;;;;;;22.33;7.05;;;;;;;27.51;43.32;99077.88;3085320;28;20113;-70
2023/07/20 03:36:06;;;;;;;18.20;6.55;;;;;;;27.50;42.91;99081.56;3084835;28;20055;-70
2023/07/20 03:37:38;;;;;;;20.65;6.47;;;;;;;27.51;43.21;99080.53;3085151;28;20106;-70
2023/07/20 03:39:09;;;;;;;25.38;8.38;;;;;;;27.54;43.32;99074.81;3080352;28;20117;-71
2023/07/20 03:40:49;;;;;;;26.55;7.93;;;;;;;27.54;43.32;99075.66;3072982;28;20090;-71
2023/07/20 03:42:20;;;;;;;25.48;8.38;;;;;;;27.55;43.01;99073.81;3073796;28;20070;-70
2023/07/20 03:43:52;;;;;;;33.28;8.10;;;;;;;27.56;43.49;99070.91;3076245;28;20094;-70
2023/07/20 03:45:23;;;;;;;22.42;8.15;;;;;;;27.59;43.37;99067.03;3072238;28;20047;-70
2023/07/20 03:46:55;;;;;;;35.03;7.32;;;;;;;27.60;43.26;99066.03;3079976;28;20066;-70
2023/07/20 03:48:27;;;;;;;21.52;7.82;;;;;;;27.61;43.04;99064.97;3079741;28;20464;-70
2023/07/20 03:50:00;;;;;;;31.02;7.88;;;;;;;27.62;43.02;99063.94;3079946;28;20592;-70
2023/07/20 03:51:31;;;;;;;27.08;8.07;;;;;;;27.62;43.14;99070.13;3078340;28;20055;-70
2023/07/20 03:53:02;;;;;;;39.47;7.70;;;;;;;27.63;43.26;99066.44;3079388;28;20059;-70
2023/07/20 03:54:34;;;;;;;24.50;9.07;;;;;;;27.62;43.03;99067.44;3079886;28;20116;-70
2023/07/20 03:56:05;;;;;;;26.60;8.55;;;;;;;27.63;43.24;99068.31;3074597;28;20055;-71
2023/07/20 03:57:37;;;;;;;20.33;7.68;;;;;;;27.64;43.38;99070.75;3079920;28;20218;-71
2023/07/20 03:59:09;;;;;;;20.73;8.35;;;;;;;27.66;43.11;99066.06;3071984;28;20058;-71
2023/07/20 04:00:40;;;;;;;25.27;8.13;;;;;;;27.67;43.32;99070.38;3079872;28;20102;-71
2023/07/20 04:02:12;;;;;;;25.13;7.45;;;;;;;27.71;43.45;99073.47;3078806;28;20054;-70
2023/07/20 04:03:43;;;;;;;24.52;8.25;;;;;;;27.73;43.57;99068.75;3067252;28;20059;-71
2023/07/20 04:05:17;;;;;;;27.50;8.18;;;;;;;27.75;43.19;99074.75;3069018;28;20545;-69
2023/07/20 04:06:48;;;;;;;23.95;8.07;;;;;;;27.78;43.81;99078.88;3079366;28;20054;-69
2023/07/20 04:08:20;;;;;;;25.98;8.38;;;;;;;27.79;43.71;99077.88;3079664;28;20541;-69
2023/07/20 04:09:51;;;;;;;30.60;7.40;;;;;;;27.81;43.53;99079.31;3056024;29;20056;-71
2023/07/20 04:11:23;;;;;;;19.35;7.72;;;;;;;27.84;43.78;99081.59;3070127;28;20543;-67
2023/07/20 04:12:54;;;;;;;27.60;7.68;;;;;;;27.85;43.51;99085.91;3082832;28;20055;-70
2023/07/20 04:14:25;;;;;;;33.88;8.00;;;;;;;27.88;43.53;99077.50;3068292;28;20055;-72
2023/07/20 04:15:56;;;;;;;18.73;8.13;;;;;;;27.90;43.19;99083.50;3067614;28;20058;-72
2023/07/20 04:17:28;;;;;;;32.15;7.63;;;;;;;27.92;43.49;99082.44;3076434;28;20681;-72
2023/07/20 04:18:59;;;;;;;86.13;48.05;;;;;;;27.93;43.74;99078.78;3071877;28;20555;-69
2023/07/20 04:20:32;;;;;;;51.47;21.15;;;;;;;27.98;43.82;99077.16;3079375;28;20129;-68
2023/07/20 04:22:04;;;;;;;;;;;;;;;27.84;43.67;99084.28;3080021;28;20113;-71
2023/07/20 04:23:35;;;;;;;32.13;15.00;;;;;;;27.93;43.98;99084.13;3078979;28;20425;-72
2023/07/20 04:25:09;;;;;;;48.33;32.92;;;;;;;28.01;43.90;99084.78;3077016;28;20109;-70
2023/07/20 04:26:41;;;;;;;27.88;10.75;;;;;;;28.05;43.95;99085.19;3070588;28;20204;-68
2023/07/20 04:28:12;;;;;;;71.88;43.85;;;;;;;28.08;43.79;99084.81;3079328;28;20130;-67
2023/07/20 04:29:43;;;;;;;30.15;10.75;;;;;;;28.11;43.56;99085.22;3079054;28;20251;-67
2023/07/20 04:31:17;;;;;;;27.02;7.68;;;;;;;28.14;43.43;99084.00;3078980;28;20621;-65
2023/07/20 04:32:47;;;;;;;;;;;;;;;28.01;43.31;99091.97;3079639;28;20633;-66
2023/07/20 04:34:19;;;;;;;31.63;8.40;;;;;;;28.09;43.41;99092.63;3079252;28;19989;-66
2023/07/20 04:35:53;;;;;;;31.08;9.13;;;;;;;28.17;43.48;99091.63;3079061;28;20069;-66
2023/07/20 04:37:25;;;;;;;30.20;9.57;;;;;;;28.19;43.02;99094.09;3079008;28;20110;-69
2023/07/20 04:38:57;;;;;;;28.15;8.18;;;;;;;28.22;43.38;99097.22;3079201;28;20062;-68
2023/07/20 04:40:27;;;;;;;33.42;8.65;;;;;;;28.24;43.13;99091.66;3072610;28;20493;-68
2023/07/20 04:41:59;;;;;;;23.45;8.07;;;;;;;28.24;43.17;99094.31;3067566;28;20161;-69
2023/07/20 04:43:31;;;;;;;33.67;9.07;;;;;;;28.26;43.61;99094.97;3067114;28;20580;-68
2023/07/20 04:45:03;;;;;;;22.42;8.40;;;;;;;28.26;43.38;99093.09;3075202;28;20054;-71
2023/07/20 04:46:35;;;;;;;32.58;8.73;;;;;;;28.29;43.67;99097.22;3079262;28;20106;-71
2023/07/20 04:48:11;;;;;;;22.25;8.35;;;;;;;28.29;43.76;99098.06;3079048;28;20129;-71
2023/07/20 04:49:43;;;;;;;26.80;8.85;;;;;;;28.26;43.43;99097.63;3079040;28;20417;-75
2023/07/20 04:51:17;;;;;;;27.38;8.38;;;;;;;28.24;43.45;99099.69;3076717;28;20055;-66
2023/07/20 04:52:49;;;;;;;39.78;8.30;;;;;;;28.19;43.85;99102.97;3079195;28;20078;-72
2023/07/20 04:54:20;;;;;;;26.90;8.85;;;;;;;28.20;43.58;99107.28;3079243;28;20062;-73
2023/07/20 04:55:52;;;;;;;25.63;7.63;;;;;;;28.17;43.63;99109.53;3073100;28;20082;-72
2023/07/20 04:57:24;;;;;;;32.72;9.10;;;;;;;28.14;43.99;99110.75;3067712;28;20516;-74
2023/07/20 04:58:56;;;;;;;27.55;7.88;;;;;;;28.13;43.73;99109.94;3065428;29;20059;-75
2023/07/20 05:00:27;;;;;;;19.30;8.18;;;;;;;28.11;43.37;99116.53;3064663;28;20059;-74
2023/07/20 05:02:00;;;;;;;25.83;8.15;;;;;;;28.09;43.68;99110.53;3066379;28;20524;-74
2023/07/20 05:03:30;;;;;;;24.58;8.48;;;;;;;28.13;43.37;99109.94;3066077;28;20547;-76
2023/07/20 05:05:03;;;;;;;29.45;6.93;;;;;;;28.14;43.12;99105.41;3066038;28;20105;-71
2023/07/20 05:06:35;;;;;;;28.27;7.32;;;;;;;28.14;43.01;99116.13;3071207;28;20055;-71
2023/07/20 05:08:07;;;;;;;23.15;7.70;;;;;;;28.18;42.82;99112.00;3066742;28;20841;-72
2023/07/20 05:09:38;;;;;;;18.67;6.67;;;;;;;28.22;43.00;99117.78;3076735;28;20464;-72
2023/07/20 05:11:10;;;;;;;16.15;6.10;;;;;;;28.28;42.50;99115.16;3066497;28;20047;-73
2023/07/20 05:12:42;;;;;;;13.93;5.82;;;;;;;28.35;42.31;99121.34;3071508;28;20105;-72
2023/07/20 05:14:14;;;;;;;22.00;6.32;;;;;;;28.43;42.05;99122.25;3072355;28;20078;-73
2023/07/20 05:15:45;;;;;;;18.35;6.10;;;;;;;28.47;42.28;99115.44;3067234;28;20059;-74
2023/07/20 05:17:17;;;;;;;15.80;5.82;;;;;;;28.50;41.96;99115.03;3078708;28;20055;-73
2023/07/20 05:18:48;;;;;;;24.95;6.97;;;;;;;28.54;41.88;99106.41;3078980;28;20063;-72
2023/07/20 05:20:20;;;;;;;24.17;6.05;;;;;;;28.60;42.14;99101.25;3078299;28;20548;-71
2023/07/20 05:21:53;;;;;;;20.90;6.05;;;;;;;28.64;42.07;99111.38;3078782;28;20130;-73
2023/07/20 05:23:26;;;;;;;17.35;6.18;;;;;;;28.68;42.02;99103.75;3077859;28;20523;-70
2023/07/20 05:24:57;;;;;;;30.25;8.23;;;;;;;28.72;41.86;99105.81;3070248;28;20272;-70
2023/07/20 05:26:29;;;;;;;12.82;6.65;;;;;;;28.79;41.62;99103.16;3066420;29;20059;-71
2023/07/20 05:28:01;;;;;;;22.45;6.15;;;;;;;28.83;41.83;99100.88;3066742;28;20055;-68
2023/07/20 05:29:33;;;;;;;14.27;6.45;;;;;;;28.87;41.44;99104.78;3066500;28;20059;-70
2023/07/20 05:31:04;;;;;;;13.18;5.30;;;;;;;28.91;41.77;99103.38;3068711;28;20228;-70
2023/07/20 05:32:36;;;;;;;12.90;5.63;;;;;;;28.96;41.72;99103.59;3078840;28;20145;-70
2023/07/20 05:34:13;;;;;;;13.85;6.07;;;;;;;29.00;41.32;99102.13;3078409;28;20118;-70
2023/07/20 05:35:55;;;;;;;14.30;5.97;;;;;;;29.02;41.21;99100.94;3078332;28;20054;-69
2023/07/20 05:37:28;;;;;;;15.50;6.15;;;;;;;29.03;41.23;99105.25;3066370;28;20055;-70
2023/07/20 05:39:00;;;;;;;14.98;6.35;;;;;;;29.01;41.58;99101.09;3066549;28;20063;-71
2023/07/20 05:40:31;;;;;;;12.82;5.55;;;;;;;29.03;41.16;99104.44;3066273;28;20050;-70
2023/07/20 05:42:04;;;;;;;25.20;5.82;;;;;;;29.07;41.11;99094.94;3055015;29;20060;-70
2023/07/20 05:43:35;;;;;;;15.00;5.50;;;;;;;29.10;41.05;99099.88;3077724;28;20054;-70
2023/07/20 05:45:08;;;;;;;19.67;5.82;;;;;;;29.14;40.91;99094.97;3078591;28;20089;-70
2023/07/20 05:46:39;;;;;;;17.30;6.10;;;;;;;29.18;40.84;99097.00;3078540;28;20059;-71
2023/07/20 05:48:12;;;;;;;13.20;5.10;;;;;;;29.26;41.03;99095.97;3078412;28;20413;-71
2023/07/20 05:49:45;;;;;;;17.00;5.43;;;;;;;29.34;41.02;99090.38;3078712;28;20821;-71
2023/07/20 05:51:16;;;;;;;22.98;6.30;;;;;;;29.40;40.90;99083.38;3076887;28;20458;-71
2023/07/20 05:52:49;;;;;;;18.25;5.80;;;;;;;29.50;40.29;99088.31;3078308;28;20141;-72
2023/07/20 05:54:20;;;;;;;16.15;5.57;;;;;;;29.53;40.54;99088.72;3054576;29;20067;-72
2023/07/20 05:55:55;;;;;;;16.40;6.70;;;;;;;29.55;40.35;99086.66;3066828;28;20520;-71
2023/07/20 05:57:30;;;;;;;10.82;5.85;;;;;;;29.54;40.15;99081.50;3066236;28;20543;-72
2023/07/20 05:59:02;;;;;;;21.90;5.45;;;;;;;29.60;40.05;99086.84;3066196;28;20129;-70
2023/07/20 06:00:34;;;;;;;18.60;6.47;;;;;;;29.67;39.93;99085.00;3076366;28;20101;-70
2023/07/20 06:02:06;;;;;;;13.20;5.78;;;;;;;29.73;40.02;99077.13;3076675;28;20142;-71
2023/07/20 06:03:38;;;;;;;15.20;5.82;;;;;;;29.77;39.98;99079.19;3071506;28;20106;-71
2023/07/20 06:05:09;;;;;;;14.10;5.75;;;;;;;29.90;39.76;99083.69;3078353;28;20582;-71
2023/07/20 06:06:44;;;;;;;18.65;5.70;;;;;;;29.93;39.71;99078.75;3078209;28;20059;-70
2023/07/20 06:08:17;;;;;;;13.15;5.32;;;;;;;29.91;39.15;99074.63;3068204;28;20055;-73
2023/07/20 06:09:49;;;;;;;11.95;4.72;;;;;;;29.88;39.05;99064.31;3065801;28;20082;-73
2023/07/20 06:11:20;;;;;;;16.10;5.20;;;;;;;29.88;39.00;99069.69;3066004;28;20414;-73
2023/07/20 06:12:52;;;;;;;17.35;6.25;;;;;;;29.99;38.75;99065.47;3066134;28;20117;-71
2023/07/20 06:14:23;;;;;;;12.52;5.10;;;;;;;30.01;38.67;99066.91;3065922;28;20684;-66
2023/07/20 06:15:55;;;;;;;12.05;5.47;;;;;;;30.05;38.75;99062.78;3069842;28;20054;-68
2023/07/20 06:17:26;;;;;;;16.13;5.45;;;;;;;30.11;38.36;99064.63;3069112;28;20527;-68
2023/07/20 06:18:59;;;;;;;18.42;6.40;;;;;;;30.19;38.34;99062.72;3076291;28;20058;-68
2023/07/20 06:20:30;;;;;;;;;;;;;;;30.09;38.53;99061.31;3078577;28;20110;-67
2023/07/20 06:22:03;;;;;;;17.08;6.43;;;;;;;30.21;38.76;99063.38;3077915;28;20438;-67
2023/07/20 06:23:35;;;;;;;15.50;5.53;;;;;;;30.32;38.37;99066.19;3078474;28;20059;-67
2023/07/20 06:25:07;;;;;;;14.05;5.70;;;;;;;30.35;38.21;99062.25;3073457;28;20592;-67
2023/07/20 06:26:39;;;;;;;12.75;5.25;;;;;;;30.34;38.04;99058.72;3066419;28;20070;-66
2023/07/20 06:28:11;;;;;;;14.82;5.88;;;;;;;30.40;37.67;99048.97;3074493;28;20456;-67
2023/07/20 06:29:43;;;;;;;16.40;5.27;;;;;;;30.46;37.35;99045.44;3078072;28;20089;-66
2023/07/20 06:31:14;;;;;;;11.13;5.05;;;;;;;30.44;37.20;99046.69;3078179;28;20067;-67
2023/07/20 06:32:46;;;;;;;12.90;5.38;;;;;;;30.43;37.42;99045.03;3073089;28;20055;-67
2023/07/20 06:34:17;;;;;;;16.02;5.63;;;;;;;30.41;37.62;99049.81;3071439;28;20057;-66
2023/07/20 06:35:50;;;;;;;13.73;5.82;;;;;;;30.37;37.24;99055.59;3078054;28;20280;-67
2023/07/20 06:37:21;;;;;;;15.32;5.57;;;;;;;30.40;37.48;99050.84;3079943;28;20133;-68
2023/07/20 06:38:54;;;;;;;15.52;5.68;;;;;;;30.50;37.64;99040.47;3080578;28;20042;-68
2023/07/20 06:40:26;;;;;;;18.52;5.47;;;;;;;30.54;37.11;99042.50;3074446;28;20087;-67
2023/07/20 06:41:57;;;;;;;22.90;6.50;;;;;;;30.63;37.22;99052.97;3068321;28;20059;-71
2023/07/20 06:43:29;;;;;;;36.00;6.90;;;;;;;30.73;37.30;99047.94;3069605;28;20125;-67
2023/07/20 06:45:01;;;;;;;16.73;5.60;;;;;;;30.83;37.04;99051.00;3080204;28;20058;-67
2023/07/20 06:46:33;;;;;;;16.42;5.78;;;;;;;30.93;36.82;99045.94;3080459;28;20262;-67
2023/07/20 06:48:06;;;;;;;17.73;5.47;;;;;;;31.07;36.96;99048.53;3080064;28;20098;-67
2023/07/20 06:49:37;;;;;;;20.08;5.82;;;;;;;31.19;36.75;99044.06;3076272;28;20055;-68
2023/07/20 06:51:10;;;;;;;17.90;7.07;;;;;;;31.33;36.46;99047.47;3067573;28;20066;-69
2023/07/20 06:52:41;;;;;;;24.45;6.60;;;;;;;31.41;36.30;99041.78;3080303;28;20086;-68
2023/07/20 06:54:15;;;;;;;12.45;5.65;;;;;;;31.51;36.31;99047.50;3079667;28;20058;-69
2023/07/20 06:55:46;;;;;;;15.77;5.30;;;;;;;31.61;35.82;99046.97;3067997;28;20098;-72
2023/07/20 06:57:18;;;;;;;19.33;8.27;;;;;;;31.68;35.92;99042.31;3068218;28;20484;-71
2023/07/20 06:58:49;;;;;;;14.40;5.50;;;;;;;31.75;36.04;99047.66;3076951;28;20386;-70
2023/07/20 07:00:28;;;;;;;13.48;6.25;;;;;;;31.82;35.74;99040.31;3080111;28;20057;-70
2023/07/20 07:02:03;;;;;;;17.40;5.28;;;;;;;31.84;35.71;99046.28;3078776;28;20059;-70
2023/07/20 07:03:44;;;;;;;15.98;5.80;;;;;;;31.87;35.53;99049.34;3076105;28;20117;-67
2023/07/20 07:10:04;;;;;;;17.25;5.78;;;;;;;31.68;35.32;99050.41;3062908;28;20242;-67
2023/07/20 07:11:50;;;;;;;17.98;5.35;;;;;;;31.64;35.37;99043.84;3067783;28;20422;-68
2023/07/20 07:17:38;;;;;;;10.35;5.00;;;;;;;31.83;35.21;99041.97;3079305;28;20096;-69
2023/07/20 07:21:09;;;;;;;;;;;;;;;31.84;35.42;99036.34;3066241;29;19926;-68
2023/07/20 07:22:43;;;;;;;12.80;4.95;;;;;;;31.99;34.89;99035.16;3076606;28;19981;-69
2023/07/20 07:24:22;;;;;;;15.95;5.28;;;;;;;32.08;34.75;99041.88;3070513;28;20243;-66